Elbert, CO

3:11 AM MDT on July 04, 2015 (GMT -0600)
Prairie Breeze | | Change Station
CLOSE
Current Station
Personal Weather Station
Location: Elizabeth, CO
Elevation: 6827 ft
Nearby Weather Stations

Elev 6827 ft 39.28 °N, 104.62 °W | Updated 51 seconds ago

Clear
Clear
55.9 °F
Feels Like 55.9 °F
N
7.0
Wind Variable Wind from SSW
Gusts 8.0 mph

Today
High -- | Low -- °F
--% Chance of Precip.
Yesterday
High -- | Low -- °F
Precip. -- in
5:37 AM 8:28 PM
Waning Gibbous, 93% visible
Pressure 29.86 in
Visibility 10.0 miles
Clouds Few 22000 ft
Dew Point 50 °F
Humidity 80%
Rainfall 0.00 in
Snow Depth Not available.
UV 0 out of 12
Pollen 2.00 out of 12
Air Quality Not available.
Flu Activity Not available.
METAR KAPA 040853Z 18007KT 10SM FEW220 17/10 A3007 RMK AO2 SLP111 T01720100 56018

More Conditions Fewer Conditions

Pressure 29.86 in
Visibility 10.0 miles
Clouds Few 22000 ft
Dew Point 50 °F
Humidity 80%
Rainfall 0.00 in
Snow Depth Not available.
UV 0 out of 12
Pollen 2.00 out of 12
Air Quality Not available.
Flu Activity Not available.
METAR KAPA 040853Z 18007KT 10SM FEW220 17/10 A3007 RMK AO2 SLP111 T01720100 56018

More Conditions Fewer Conditions

10-Day Weather Forecast

×

Almanac

Astronomy

Jul. 04, 2015 Rise Set
Actual Time
Civil Twilight
Nautical Twilight
Astronomical Twilight
Moon
Length of Visible Light
Length of Day
Tomorrow will be .
, % of the Moon is Illuminated

Today's Extremes

State Highs State Lows

Community

WunderPhotos

Upload Photos

1,834,931 photos uploaded!

WunderBlogs® & News

Nearby

Air Quality

  Air Quality AQ Index Pollutant
Not available.

Snow Depth

Station Depth Elevation

Earthquake Activity

City Distance Mag. Time & Date
Minimum magnitude displayed is 2.5.

Coastal Water Temperatures

Place Temperature

Stations

Nearby Weather Stations

Station Location Temp. Windchill Dew Point Humidity Wind Precip. Elev Updated Type